Time;durP1;ratioP1;P1;durP2;ratioP2;P2;SDS_P1;SDS_P2;PMS_P1;PMS_P2;Temp;Humidity;BMP_temperature;BMP_pressure;BME280_temperature;BME280_humidity;BME280_pressure;Samples;Min_cycle;Max_cycle;Signal;HPM_P1;HPM_P2
2022/06/09 00:00:17;;;;;;;1.35;1.25;;;16.70;99.90;;;;;;5054004;28;20325;-67
2022/06/09 00:02:47;;;;;;;1.30;1.20;;;16.70;99.90;;;;;;5053639;28;20289;-67
2022/06/09 00:05:15;;;;;;;1.23;1.15;;;16.60;99.90;;;;;;5054048;28;20304;-67
2022/06/09 00:07:44;;;;;;;0.88;0.88;;;16.70;99.90;;;;;;5053910;28;20566;-67
2022/06/09 00:10:14;;;;;;;1.20;1.10;;;16.70;99.90;;;;;;5053947;28;20674;-67
2022/06/09 00:12:42;;;;;;;1.20;1.10;;;16.70;99.90;;;;;;5053424;28;20214;-67
2022/06/09 00:15:13;;;;;;;0.90;0.90;;;16.80;99.90;;;;;;5053806;28;20290;-67
2022/06/09 00:17:40;;;;;;;0.93;0.93;;;16.80;99.90;;;;;;5053386;28;20210;-67
2022/06/09 00:20:07;;;;;;;0.80;0.80;;;16.80;99.90;;;;;;5053405;28;20337;-67
2022/06/09 00:22:34;;;;;;;1.15;1.05;;;16.80;99.90;;;;;;5053114;28;20488;-67
2022/06/09 00:25:01;;;;;;;0.90;0.90;;;16.70;99.90;;;;;;5053582;28;20400;-67
2022/06/09 00:27:28;;;;;;;1.38;1.00;;;16.60;99.90;;;;;;5053265;28;20298;-68
2022/06/09 00:29:56;;;;;;;1.20;1.13;;;16.60;99.90;;;;;;5053290;28;20314;-68
2022/06/09 00:32:23;;;;;;;1.33;1.23;;;16.60;99.90;;;;;;5053104;28;20310;-68
2022/06/09 00:34:50;;;;;;;1.67;0.95;;;16.70;99.90;;;;;;5053597;28;20725;-68
2022/06/09 00:37:16;;;;;;;1.00;0.90;;;16.70;99.90;;;;;;5053226;28;20294;-68
2022/06/09 00:39:43;;;;;;;1.05;1.05;;;16.80;99.90;;;;;;5053246;28;20314;-68
2022/06/09 00:42:10;;;;;;;1.30;1.20;;;16.90;99.90;;;;;;5053004;28;20301;-68
2022/06/09 00:44:38;;;;;;;1.00;1.00;;;16.90;99.90;;;;;;5053211;28;20234;-68
2022/06/09 00:47:09;;;;;;;0.95;0.90;;;16.90;99.90;;;;;;5052957;28;20209;-67
2022/06/09 00:49:42;;;;;;;0.75;0.75;;;16.90;99.90;;;;;;5052848;28;20323;-67
2022/06/09 00:52:13;;;;;;;0.80;0.80;;;16.80;99.90;;;;;;5052470;28;20748;-68
2022/06/09 00:54:44;;;;;;;0.90;0.90;;;16.70;99.90;;;;;;5052959;28;20294;-68
2022/06/09 00:57:16;;;;;;;1.05;0.95;;;16.80;99.90;;;;;;5052768;28;20207;-67
2022/06/09 00:59:45;;;;;;;1.23;0.80;;;16.80;99.90;;;;;;5052448;28;20310;-68
2022/06/09 01:02:17;;;;;;;0.90;0.90;;;16.90;99.90;;;;;;5052547;28;20302;-68
2022/06/09 01:04:45;;;;;;;1.08;1.08;;;16.90;99.90;;;;;;5052963;28;20318;-68
2022/06/09 01:07:15;;;;;;;1.08;0.98;;;17.00;99.90;;;;;;5052883;28;20207;-67
2022/06/09 01:09:42;;;;;;;0.70;0.70;;;17.00;99.90;;;;;;5052886;28;20314;-68
2022/06/09 01:12:28;;;;;;;1.45;1.00;;;17.00;99.90;;;;;;5052458;28;20314;-68
2022/06/09 01:14:59;;;;;;;0.70;0.70;;;16.90;99.90;;;;;;5053005;28;20197;-68
2022/06/09 01:17:37;;;;;;;0.82;0.82;;;16.80;99.90;;;;;;5052708;28;20207;-67
2022/06/09 01:20:20;;;;;;;0.85;0.85;;;16.80;99.90;;;;;;5052390;28;20309;-68
2022/06/09 01:23:07;;;;;;;0.80;0.60;;;16.70;99.90;;;;;;5052228;28;20302;-68
2022/06/09 01:26:18;;;;;;;1.48;1.30;;;16.60;99.90;;;;;;5053082;28;20581;-68
2022/06/09 01:29:04;;;;;;;0.80;0.80;;;16.40;99.90;;;;;;5024872;28;20289;-68
2022/06/09 01:31:39;;;;;;;1.98;0.93;;;16.30;99.90;;;;;;5053727;28;20293;-68
2022/06/09 01:34:11;;;;;;;1.20;1.00;;;16.30;99.90;;;;;;5054779;28;20292;-68
2022/06/09 01:36:44;;;;;;;0.63;0.63;;;16.30;99.90;;;;;;5054434;28;20298;-68
2022/06/09 01:39:11;;;;;;;1.60;0.85;;;16.20;99.90;;;;;;5053541;28;20325;-68
2022/06/09 01:41:46;;;;;;;1.17;0.75;;;16.20;99.90;;;;;;5053157;28;20297;-68
2022/06/09 01:44:12;;;;;;;0.80;0.80;;;16.20;99.90;;;;;;5053191;28;20317;-68
2022/06/09 01:46:43;;;;;;;0.90;0.85;;;16.00;99.90;;;;;;5053412;28;20312;-68
2022/06/09 01:49:14;;;;;;;1.40;0.80;;;16.00;99.90;;;;;;5053358;28;20316;-68
2022/06/09 01:51:43;;;;;;;1.05;0.60;;;16.00;99.90;;;;;;5053402;28;20195;-69
2022/06/09 01:54:22;;;;;;;0.80;0.80;;;15.90;99.90;;;;;;5052788;28;20308;-68
2022/06/09 01:56:52;;;;;;;1.55;0.93;;;15.90;99.90;;;;;;5053129;28;20292;-68
2022/06/09 01:59:24;;;;;;;1.60;1.10;;;15.90;99.90;;;;;;5053252;28;20312;-68
2022/06/09 02:01:56;;;;;;;0.80;0.80;;;15.90;99.90;;;;;;5053337;28;20278;-68
2022/06/09 02:04:27;;;;;;;1.30;1.20;;;15.90;99.90;;;;;;5056959;28;20321;-68
2022/06/09 02:06:55;;;;;;;1.02;0.95;;;15.90;99.90;;;;;;5057613;28;20293;-68
2022/06/09 02:09:26;;;;;;;1.33;1.23;;;15.80;99.90;;;;;;5057059;28;20611;-68
2022/06/09 02:11:56;;;;;;;3.17;1.10;;;15.80;99.90;;;;;;5057083;28;20210;-68
2022/06/09 02:14:27;;;;;;;1.63;1.25;;;15.90;99.90;;;;;;5056869;28;20289;-68
2022/06/09 02:16:56;;;;;;;1.98;0.90;;;15.80;99.90;;;;;;5056915;28;20302;-68
2022/06/09 02:19:23;;;;;;;1.40;1.30;;;15.80;99.90;;;;;;5056638;28;20313;-68
2022/06/09 02:21:50;;;;;;;3.42;1.27;;;15.80;99.90;;;;;;5056878;28;20232;-68
2022/06/09 02:24:17;;;;;;;1.90;1.70;;;15.80;99.90;;;;;;5056625;28;20321;-68
2022/06/09 02:26:44;;;;;;;2.22;1.25;;;15.80;99.90;;;;;;5056847;28;20217;-68
2022/06/09 02:29:11;;;;;;;1.77;1.42;;;15.80;99.90;;;;;;5056499;28;20313;-68
2022/06/09 02:31:37;;;;;;;1.10;1.10;;;15.70;99.90;;;;;;5056720;28;20301;-69
2022/06/09 02:34:06;;;;;;;3.35;1.60;;;15.70;99.90;;;;;;5056719;28;20297;-68
2022/06/09 02:36:32;;;;;;;1.45;1.35;;;15.70;99.90;;;;;;5056337;28;20330;-68
2022/06/09 02:38:59;;;;;;;1.50;1.40;;;15.70;99.90;;;;;;5056474;28;20312;-68
2022/06/09 02:41:26;;;;;;;1.42;1.33;;;15.70;99.90;;;;;;5056595;28;20213;-69
2022/06/09 02:43:53;;;;;;;1.42;1.33;;;15.60;99.90;;;;;;5056038;28;20206;-68
2022/06/09 02:46:20;;;;;;;1.38;1.30;;;15.60;99.90;;;;;;5056403;28;20293;-68
2022/06/09 02:48:47;;;;;;;3.30;1.80;;;15.60;99.90;;;;;;5056325;28;20245;-68
2022/06/09 02:51:25;;;;;;;1.58;1.48;;;15.60;99.90;;;;;;5056407;28;20297;-68
2022/06/09 02:53:51;;;;;;;1.77;1.67;;;15.60;99.90;;;;;;5056074;28;20603;-68
2022/06/09 02:56:19;;;;;;;1.75;1.30;;;15.60;99.90;;;;;;5056159;28;20301;-68
2022/06/09 02:58:46;;;;;;;2.38;1.60;;;15.60;99.90;;;;;;5056035;28;20297;-69
2022/06/09 03:01:13;;;;;;;2.45;1.73;;;15.60;99.90;;;;;;5056203;28;20232;-68
2022/06/09 03:03:40;;;;;;;1.73;1.63;;;15.60;99.90;;;;;;5055980;28;20206;-68
2022/06/09 03:06:08;;;;;;;2.13;1.90;;;15.60;99.90;;;;;;5055828;28;20229;-68
2022/06/09 03:08:36;;;;;;;2.10;1.90;;;15.60;99.90;;;;;;5055934;28;20203;-68
2022/06/09 03:11:04;;;;;;;2.60;2.17;;;15.60;99.90;;;;;;5056001;28;20619;-68
2022/06/09 03:13:31;;;;;;;2.65;1.98;;;15.50;99.90;;;;;;5055738;28;20749;-68
2022/06/09 03:15:58;;;;;;;2.63;1.80;;;15.50;99.90;;;;;;5055688;28;20204;-69
2022/06/09 03:18:25;;;;;;;2.95;2.22;;;15.50;99.90;;;;;;5055797;28;20296;-68
2022/06/09 03:20:52;;;;;;;1.85;1.75;;;15.50;99.90;;;;;;5055744;28;20230;-68
2022/06/09 03:23:18;;;;;;;1.80;1.70;;;15.50;99.90;;;;;;5055486;28;20293;-68
2022/06/09 03:25:48;;;;;;;1.85;1.75;;;15.60;99.90;;;;;;5055581;28;20269;-68
2022/06/09 03:28:14;;;;;;;2.03;1.80;;;15.60;99.90;;;;;;5055606;28;20210;-68
2022/06/09 03:30:41;;;;;;;1.80;1.70;;;15.60;99.90;;;;;;5055592;28;20317;-68
2022/06/09 03:33:08;;;;;;;2.83;1.60;;;15.60;99.90;;;;;;5055340;28;20301;-68
2022/06/09 03:35:35;;;;;;;1.90;1.80;;;15.60;99.90;;;;;;5055543;28;20608;-68
2022/06/09 03:38:02;;;;;;;2.80;2.08;;;15.60;99.90;;;;;;5055394;28;20210;-68
2022/06/09 03:40:32;;;;;;;2.15;1.95;;;15.60;99.90;;;;;;5055441;28;20316;-68
2022/06/09 03:43:02;;;;;;;2.45;2.13;;;15.60;99.90;;;;;;5055266;28;20638;-68
2022/06/09 03:45:29;;;;;;;1.95;1.80;;;15.60;99.90;;;;;;5055324;28;20230;-68
2022/06/09 03:47:56;;;;;;;1.80;1.70;;;15.60;99.90;;;;;;5055164;28;20297;-68
2022/06/09 03:50:25;;;;;;;2.00;1.90;;;15.60;99.90;;;;;;5055197;28;20580;-68
2022/06/09 03:52:52;;;;;;;6.80;5.72;;;15.60;99.90;;;;;;5054800;28;20645;-69
2022/06/09 03:55:19;;;;;;;6.18;2.75;;;15.60;99.90;;;;;;5055613;28;20206;-68
2022/06/09 03:57:46;;;;;;;2.42;2.22;;;15.60;99.90;;;;;;5055000;28;20289;-68
2022/06/09 04:00:19;;;;;;;1.92;1.83;;;15.60;99.90;;;;;;5055037;28;20632;-68
2022/06/09 04:02:46;;;;;;;3.22;2.28;;;15.60;99.90;;;;;;5054764;28;20293;-68
2022/06/09 04:05:13;;;;;;;4.00;2.28;;;15.60;99.90;;;;;;5054807;28;20317;-69
2022/06/09 04:07:41;;;;;;;2.63;2.42;;;15.60;99.90;;;;;;5054931;28;20218;-69
2022/06/09 04:10:13;;;;;;;4.20;2.50;;;15.50;99.90;;;;;;5054538;28;20229;-68
2022/06/09 04:12:40;;;;;;;3.85;2.33;;;15.60;99.90;;;;;;5054609;28;20296;-68
2022/06/09 04:15:07;;;;;;;3.40;2.30;;;15.60;99.90;;;;;;5054756;28;20631;-68
2022/06/09 04:17:35;;;;;;;15.63;10.80;;;15.50;99.90;;;;;;5054664;28;20293;-69
2022/06/09 04:20:03;;;;;;;3.85;2.60;;;15.50;99.90;;;;;;5054539;28;20312;-68
2022/06/09 04:22:30;;;;;;;2.88;2.40;;;15.50;99.90;;;;;;5054454;28;20207;-69
2022/06/09 04:24:56;;;;;;;3.50;2.65;;;15.50;99.90;;;;;;5053987;28;20312;-68
2022/06/09 04:27:24;;;;;;;4.95;2.58;;;15.50;99.90;;;;;;5054441;28;20237;-68
2022/06/09 04:29:51;;;;;;;2.67;2.47;;;15.50;99.90;;;;;;5054151;28;20232;-68
2022/06/09 04:32:18;;;;;;;2.70;2.40;;;15.60;99.90;;;;;;5054255;28;20297;-68
2022/06/09 04:34:46;;;;;;;2.40;2.20;;;15.60;99.90;;;;;;5054379;28;20597;-68
2022/06/09 04:37:13;;;;;;;3.75;2.30;;;15.60;99.90;;;;;;5054340;28;20598;-68
2022/06/09 04:39:41;;;;;;;6.05;2.40;;;15.60;99.90;;;;;;5054244;28;20313;-69
2022/06/09 04:42:08;;;;;;;2.53;2.33;;;15.60;99.90;;;;;;5053939;28;20217;-69
2022/06/09 04:44:35;;;;;;;3.20;2.40;;;15.60;99.90;;;;;;5054018;28;20740;-69
2022/06/09 04:47:02;;;;;;;2.40;2.20;;;15.60;99.90;;;;;;5054108;28;20293;-69
2022/06/09 04:49:29;;;;;;;3.42;2.42;;;15.60;99.90;;;;;;5053869;28;20311;-69
2022/06/09 04:51:57;;;;;;;2.50;2.28;;;15.60;99.90;;;;;;5053868;28;20244;-69
2022/06/09 04:54:24;;;;;;;3.83;2.25;;;15.60;99.90;;;;;;5053660;28;20303;-69
2022/06/09 04:56:51;;;;;;;2.78;2.40;;;15.60;99.90;;;;;;5053943;28;20290;-69
2022/06/09 04:59:18;;;;;;;2.47;2.28;;;15.60;99.90;;;;;;5053805;28;20733;-69
2022/06/09 05:01:46;;;;;;;2.38;2.17;;;15.60;99.90;;;;;;5053735;28;20300;-69
2022/06/09 05:04:13;;;;;;;4.57;2.50;;;15.60;99.90;;;;;;5053488;28;20220;-69
2022/06/09 05:06:40;;;;;;;8.40;7.50;;;15.60;99.90;;;;;;5053974;28;20316;-69
2022/06/09 05:09:08;;;;;;;3.83;2.53;;;15.60;99.90;;;;;;5053741;28;20312;-69
2022/06/09 05:11:35;;;;;;;3.05;2.58;;;15.50;99.90;;;;;;5053519;28;20297;-69
2022/06/09 05:14:02;;;;;;;2.47;2.30;;;15.50;99.90;;;;;;5053276;28;20736;-69
2022/06/09 05:16:29;;;;;;;2.10;2.00;;;15.50;99.90;;;;;;5053432;28;20739;-69
2022/06/09 05:18:55;;;;;;;2.90;2.60;;;15.60;99.90;;;;;;5053559;28;20316;-69
2022/06/09 05:21:22;;;;;;;4.97;2.45;;;15.60;99.90;;;;;;5053815;28;20624;-69
2022/06/09 05:23:49;;;;;;;2.53;2.30;;;15.60;99.90;;;;;;5053403;28;20724;-69
2022/06/09 05:26:17;;;;;;;2.50;2.30;;;15.50;99.90;;;;;;5053617;28;20325;-69
2022/06/09 05:28:44;;;;;;;2.72;2.47;;;15.60;99.90;;;;;;5053667;28;20296;-69
2022/06/09 05:31:11;;;;;;;3.00;2.25;;;15.60;99.90;;;;;;5053922;28;20793;-69
2022/06/09 05:33:38;;;;;;;3.97;2.40;;;15.50;99.90;;;;;;5053543;28;20263;-69
2022/06/09 05:36:06;;;;;;;2.45;2.25;;;15.50;99.90;;;;;;5053579;28;20285;-69
2022/06/09 05:46:48;;;;;;;4.03;2.78;;;15.50;99.90;;;;;;5053593;28;20230;-68
2022/06/09 05:49:15;;;;;;;3.92;2.40;;;15.50;99.90;;;;;;5053247;28;20639;-69
2022/06/09 05:51:42;;;;;;;2.53;2.30;;;15.50;99.90;;;;;;5053014;28;20297;-68
2022/06/09 05:54:10;;;;;;;2.80;2.60;;;15.50;99.90;;;;;;5052939;28;20225;-69
2022/06/09 05:56:38;;;;;;;3.30;2.85;;;15.40;99.90;;;;;;5053278;28;20198;-69
2022/06/09 05:59:05;;;;;;;5.55;2.83;;;15.40;99.90;;;;;;5053253;28;20316;-69
2022/06/09 06:01:32;;;;;;;3.40;2.63;;;15.50;99.90;;;;;;5053178;28;20306;-69
2022/06/09 06:03:59;;;;;;;3.45;3.15;;;15.50;99.90;;;;;;5052709;28;20740;-69
2022/06/09 06:06:35;;;;;;;3.00;2.75;;;15.50;99.90;;;;;;5053109;28;20229;-69
2022/06/09 06:09:05;;;;;;;2.97;2.78;;;15.50;99.90;;;;;;5053067;28;20228;-68
2022/06/09 06:11:33;;;;;;;3.20;2.70;;;15.50;99.90;;;;;;5053039;28;20304;-68
2022/06/09 06:14:01;;;;;;;3.28;2.97;;;15.50;99.90;;;;;;5052980;28;20313;-68
2022/06/09 06:16:28;;;;;;;3.63;3.30;;;15.40;99.90;;;;;;5053068;28;20289;-69
2022/06/09 06:18:55;;;;;;;3.40;2.80;;;15.50;99.90;;;;;;5052969;28;20317;-69
2022/06/09 06:21:23;;;;;;;2.95;2.58;;;15.50;99.90;;;;;;5052815;28;20748;-69
2022/06/09 06:23:50;;;;;;;3.60;2.83;;;15.60;99.90;;;;;;5052860;28;20229;-69
2022/06/09 06:26:18;;;;;;;3.03;2.78;;;15.70;99.90;;;;;;5052831;28;20677;-69
2022/06/09 06:28:45;;;;;;;3.08;2.78;;;15.70;99.90;;;;;;5052875;28;20205;-69
2022/06/09 06:31:14;;;;;;;3.10;2.50;;;15.80;99.90;;;;;;5052641;28;20676;-69
2022/06/09 06:33:41;;;;;;;3.65;2.60;;;15.80;99.90;;;;;;5052776;28;20598;-69
2022/06/09 06:36:08;;;;;;;5.18;2.70;;;15.80;99.90;;;;;;5052923;28;20288;-69
2022/06/09 06:38:35;;;;;;;2.60;2.40;;;15.90;99.90;;;;;;5052799;28;20293;-69
2022/06/09 06:41:04;;;;;;;4.25;3.10;;;16.00;99.90;;;;;;5052963;28;20293;-69
2022/06/09 06:43:31;;;;;;;3.45;2.90;;;16.00;99.90;;;;;;5052471;28;20748;-69
2022/06/09 06:45:58;;;;;;;2.95;2.40;;;16.20;99.90;;;;;;5052670;28;20317;-69
2022/06/09 06:48:26;;;;;;;9.98;7.65;;;16.40;99.90;;;;;;5053553;28;20314;-69
2022/06/09 06:50:53;;;;;;;1.90;1.80;;;16.50;99.90;;;;;;5056046;28;20255;-69
2022/06/09 06:53:20;;;;;;;2.40;2.20;;;16.60;99.90;;;;;;5055843;28;20301;-69
2022/06/09 06:55:47;;;;;;;2.70;2.50;;;16.70;99.90;;;;;;5056415;28;20293;-69
2022/06/09 06:58:14;;;;;;;2.53;2.33;;;16.80;99.90;;;;;;5056380;28;20214;-69
2022/06/09 07:00:42;;;;;;;2.72;2.53;;;17.00;99.90;;;;;;5056173;28;20314;-69
2022/06/09 07:03:10;;;;;;;2.47;2.28;;;17.10;99.90;;;;;;5055830;28;20211;-69
2022/06/09 07:05:39;;;;;;;1.85;1.75;;;16.90;99.90;;;;;;5055890;28;20799;-69
2022/06/09 07:08:07;;;;;;;1.98;1.88;;;16.90;99.90;;;;;;5056128;28;20204;-69
2022/06/09 07:10:35;;;;;;;1.98;1.88;;;16.80;99.90;;;;;;5055894;28;20231;-69
2022/06/09 07:13:03;;;;;;;4.35;2.15;;;16.80;99.90;;;;;;5055550;28;20301;-70
2022/06/09 07:15:29;;;;;;;2.50;2.10;;;16.90;99.90;;;;;;5056153;28;20293;-69
2022/06/09 07:17:57;;;;;;;2.03;1.70;;;17.10;99.90;;;;;;5055842;28;20253;-69
2022/06/09 07:20:25;;;;;;;2.15;1.77;;;17.30;99.90;;;;;;5055825;28;20224;-69
2022/06/09 07:22:55;;;;;;;3.67;1.77;;;17.20;99.90;;;;;;5055551;28;20199;-69
2022/06/09 07:25:24;;;;;;;2.55;2.10;;;17.30;99.90;;;;;;5055572;28;20294;-69
2022/06/09 07:27:52;;;;;;;2.60;1.67;;;17.20;99.90;;;;;;5056931;28;20612;-69
2022/06/09 07:30:21;;;;;;;2.38;1.80;;;17.00;99.90;;;;;;5061683;28;20307;-69
2022/06/09 07:32:49;;;;;;;2.03;1.73;;;17.20;99.90;;;;;;5054358;28;20239;-69
2022/06/09 07:35:19;;;;;;;1.70;1.52;;;17.10;99.90;;;;;;5054533;28;20299;-69
2022/06/09 07:37:46;;;;;;;2.00;1.80;;;17.20;99.90;;;;;;5054372;28;20290;-70
2022/06/09 07:40:14;;;;;;;2.35;1.55;;;17.30;99.90;;;;;;5053672;28;20306;-69
2022/06/09 07:42:42;;;;;;;2.95;1.33;;;17.40;99.90;;;;;;5053790;28;20288;-70
2022/06/09 07:45:10;;;;;;;1.73;1.60;;;17.60;99.90;;;;;;5053999;28;20254;-70
2022/06/09 07:47:38;;;;;;;2.10;1.58;;;17.70;99.90;;;;;;5054155;28;20230;-69
2022/06/09 07:50:06;;;;;;;3.13;1.97;;;18.30;99.90;;;;;;5053609;28;20225;-69
2022/06/09 07:52:33;;;;;;;2.80;1.40;;;19.00;99.90;;;;;;5053280;28;20864;-68
2022/06/09 07:55:00;;;;;;;3.40;1.30;;;19.40;99.90;;;;;;5053907;28;20520;-69
2022/06/09 07:57:28;;;;;;;3.37;2.40;;;19.90;99.90;;;;;;5054045;28;20519;-68
2022/06/09 07:59:56;;;;;;;3.23;1.80;;;19.90;99.90;;;;;;5052708;28;20903;-68
2022/06/09 08:02:22;;;;;;;2.67;2.10;;;20.30;99.80;;;;;;5053434;28;20455;-69
2022/06/09 08:04:49;;;;;;;4.00;1.70;;;20.80;99.80;;;;;;5053365;28;20535;-69
2022/06/09 08:07:16;;;;;;;2.40;1.50;;;20.60;98.60;;;;;;5053646;28;20570;-68
2022/06/09 08:09:44;;;;;;;2.47;1.50;;;20.30;99.20;;;;;;5053484;28;20475;-69
2022/06/09 08:12:11;;;;;;;2.90;1.60;;;19.90;99.30;;;;;;5053092;28;20448;-69
2022/06/09 08:14:39;;;;;;;4.27;1.80;;;19.80;98.50;;;;;;5053472;28;20442;-69
2022/06/09 08:17:09;;;;;;;2.10;1.80;;;19.40;99.80;;;;;;5054088;28;20532;-69
2022/06/09 08:19:36;;;;;;;2.65;1.85;;;18.80;99.90;;;;;;5054559;28;20984;-69
2022/06/09 08:22:03;;;;;;;4.60;1.73;;;18.70;99.90;;;;;;5054681;28;20295;-70
2022/06/09 08:24:33;;;;;;;2.40;1.70;;;18.70;99.90;;;;;;5054506;28;20291;-69
2022/06/09 08:27:00;;;;;;;2.42;1.40;;;18.90;99.90;;;;;;5054581;28;20478;-69
2022/06/09 08:29:27;;;;;;;1.30;1.20;;;19.00;99.90;;;;;;5054379;28;20226;-69
2022/06/09 08:31:56;;;;;;;3.50;1.63;;;19.50;99.50;;;;;;5054189;28;21029;-69
2022/06/09 08:34:23;;;;;;;2.43;1.47;;;20.00;98.90;;;;;;5054296;28;20523;-69
2022/06/09 08:36:50;;;;;;;2.40;1.63;;;20.40;99.00;;;;;;5054433;28;20532;-69
2022/06/09 08:39:17;;;;;;;2.70;1.47;;;21.20;96.30;;;;;;5054101;28;20466;-69
2022/06/09 08:41:57;;;;;;;2.10;1.30;;;22.20;94.20;;;;;;5054373;28;20924;-69
2022/06/09 08:44:34;;;;;;;1.87;1.20;;;23.30;92.30;;;;;;5053986;28;21010;-70
2022/06/09 08:47:10;;;;;;;2.33;1.57;;;24.00;91.20;;;;;;5054161;28;20537;-69
2022/06/09 08:50:09;;;;;;;1.53;1.43;;;23.80;88.60;;;;;;5054121;28;20501;-69
2022/06/09 08:52:47;;;;;;;2.33;1.40;;;23.50;89.60;;;;;;5035641;28;20572;-70
2022/06/09 08:55:24;;;;;;;2.63;1.20;;;23.20;86.90;;;;;;5053834;28;20882;-69
2022/06/09 08:57:52;;;;;;;3.47;1.43;;;23.90;84.20;;;;;;5054076;28;20788;-69
2022/06/09 09:00:24;;;;;;;1.40;1.27;;;24.20;83.20;;;;;;5053684;28;20980;-70
2022/06/09 09:02:57;;;;;;;1.53;1.27;;;25.60;81.00;;;;;;5053740;28;20808;-69
2022/06/09 09:05:29;;;;;;;2.30;1.33;;;27.30;72.20;;;;;;5053889;28;21013;-70
2022/06/09 09:07:59;;;;;;;1.97;1.17;;;28.10;65.00;;;;;;5053843;28;20826;-69
2022/06/09 09:10:32;;;;;;;2.90;1.30;;;27.70;65.00;;;;;;5053812;28;20473;-69
2022/06/09 09:13:10;;;;;;;1.40;1.30;;;28.30;63.10;;;;;;5053301;28;20940;-70
2022/06/09 09:15:42;;;;;;;1.70;1.30;;;27.40;60.10;;;;;;5053636;28;20450;-69
2022/06/09 09:18:21;;;;;;;8.13;4.60;;;26.20;61.40;;;;;;5053729;28;20837;-69
2022/06/09 09:21:01;;;;;;;2.30;1.90;;;27.10;61.60;;;;;;5053524;28;20553;-69
2022/06/09 09:23:37;;;;;;;1.30;1.20;;;27.30;60.60;;;;;;5053350;28;20542;-69
2022/06/09 09:26:15;;;;;;;1.67;1.00;;;28.20;59.10;;;;;;5053498;28;20532;-69
2022/06/09 09:28:48;;;;;;;1.53;1.20;;;29.00;55.80;;;;;;5053547;28;20780;-69
2022/06/09 09:31:25;;;;;;;1.30;1.20;;;28.50;57.10;;;;;;5053938;28;20528;-69
2022/06/09 09:33:55;;;;;;;1.50;1.33;;;29.50;55.40;;;;;;5053409;28;20536;-69
2022/06/09 09:36:29;;;;;;;1.23;1.10;;;30.20;53.90;;;;;;5053553;28;20525;-70
2022/06/09 09:39:00;;;;;;;1.97;1.87;;;30.00;53.10;;;;;;5053455;28;20880;-69
2022/06/09 09:41:33;;;;;;;2.00;1.13;;;29.90;53.60;;;;;;5053236;28;20524;-69
2022/06/09 09:44:01;;;;;;;1.40;1.30;;;28.70;56.60;;;;;;5053649;28;20442;-69
2022/06/09 09:46:32;;;;;;;1.50;1.40;;;27.50;57.20;;;;;;5053469;28;20473;-69
2022/06/09 09:49:15;;;;;;;2.80;1.80;;;26.60;59.10;;;;;;5053516;28;20546;-69
2022/06/09 09:51:43;;;;;;;1.60;1.50;;;25.10;62.60;;;;;;5053393;28;20445;-69
2022/06/09 09:54:19;;;;;;;3.57;1.93;;;25.20;63.30;;;;;;5053172;28;20457;-69
2022/06/09 09:56:47;;;;;;;2.97;1.33;;;25.70;62.60;;;;;;5053229;28;20442;-69
2022/06/09 09:59:26;;;;;;;1.10;1.10;;;27.00;59.10;;;;;;5053439;28;20475;-69
2022/06/09 10:10:26;;;;;;;2.30;1.50;;;27.00;56.30;;;;;;5053296;28;20484;-69
2022/06/09 10:12:54;;;;;;;2.97;1.40;;;27.60;56.70;;;;;;5052958;28;20812;-69
2022/06/09 10:15:24;;;;;;;2.40;1.60;;;26.30;57.80;;;;;;5053301;28;20529;-69
2022/06/09 10:17:59;;;;;;;2.37;1.60;;;25.40;62.60;;;;;;5053142;28;20465;-69
2022/06/09 10:20:35;;;;;;;2.23;1.73;;;24.90;62.60;;;;;;5053056;28;20473;-69
2022/06/09 10:23:19;;;;;;;2.73;1.70;;;25.20;64.10;;;;;;5052941;28;20940;-69
2022/06/09 10:25:53;;;;;;;3.40;1.70;;;25.90;63.80;;;;;;5054376;28;20454;-69
2022/06/09 10:28:36;;;;;;;1.47;1.37;;;26.10;61.00;;;;;;5056799;28;20560;-69
2022/06/09 10:31:10;;;;;;;1.50;1.40;;;24.80;63.20;;;;;;5057339;28;20529;-69
2022/06/09 10:33:44;;;;;;;2.80;1.40;;;24.50;67.30;;;;;;5056559;28;20448;-69
2022/06/09 10:36:17;;;;;;;1.33;1.23;;;23.60;64.40;;;;;;5056938;28;20529;-69
2022/06/09 10:38:48;;;;;;;2.90;1.60;;;22.70;66.50;;;;;;5056625;28;20495;-69
2022/06/09 10:41:20;;;;;;;1.40;1.40;;;21.70;69.40;;;;;;5056624;28;20528;-69
2022/06/09 10:43:56;;;;;;;2.10;1.83;;;21.50;72.10;;;;;;5056383;28;20468;-69
2022/06/09 10:46:32;;;;;;;1.70;1.60;;;21.20;74.30;;;;;;5056735;28;20506;-69
2022/06/09 10:55:15;;;;;;;3.80;2.13;;;20.50;81.60;;;;;;5056678;28;20467;-69
2022/06/09 10:57:53;;;;;;;2.60;2.10;;;20.60;85.80;;;;;;5056232;28;20440;-69
2022/06/09 11:00:25;;;;;;;2.40;1.30;;;20.90;84.10;;;;;;5056142;28;20981;-69
2022/06/09 11:02:55;;;;;;;2.00;1.33;;;21.10;76.00;;;;;;5055926;28;20476;-69
2022/06/09 11:05:36;;;;;;;2.80;2.50;;;21.00;76.40;;;;;;5056267;28;20446;-69
2022/06/09 11:08:09;;;;;;;2.53;1.97;;;21.20;79.70;;;;;;5056022;28;20473;-69
2022/06/09 11:10:53;;;;;;;2.10;1.70;;;21.10;81.70;;;;;;5055924;28;20824;-69
2022/06/09 11:13:40;;;;;;;2.53;1.77;;;20.80;84.60;;;;;;5055822;28;20539;-69
2022/06/09 11:16:15;;;;;;;1.57;1.47;;;20.60;86.40;;;;;;5055949;28;20536;-69
2022/06/09 11:18:51;;;;;;;1.60;1.50;;;20.70;81.40;;;;;;5055821;28;20538;-69
2022/06/09 11:21:25;;;;;;;2.53;1.40;;;20.30;76.00;;;;;;5055850;28;20531;-69
2022/06/09 11:24:04;;;;;;;4.20;1.80;;;19.90;79.60;;;;;;5055658;28;20529;-68
2022/06/09 11:26:40;;;;;;;3.00;1.43;;;20.10;82.90;;;;;;5055688;28;20449;-69
2022/06/09 11:29:25;;;;;;;2.97;1.90;;;20.40;85.60;;;;;;5055626;28;20901;-69
2022/06/09 11:32:06;;;;;;;1.77;1.67;;;20.70;84.80;;;;;;5055493;28;20531;-69
2022/06/09 11:34:52;;;;;;;1.80;1.30;;;20.90;84.20;;;;;;5054727;28;21014;-69
2022/06/09 11:37:30;;;;;;;1.80;1.70;;;20.80;83.70;;;;;;5055505;28;20441;-69
2022/06/09 11:40:06;;;;;;;4.30;1.60;;;21.00;85.00;;;;;;5055310;28;20475;-69
2022/06/09 11:42:49;;;;;;;2.63;1.93;;;21.30;84.80;;;;;;5055414;28;20540;-69
2022/06/09 11:45:25;;;;;;;2.77;1.97;;;21.50;83.70;;;;;;5055509;28;20532;-69
2022/06/09 11:47:54;;;;;;;2.87;2.00;;;21.40;81.30;;;;;;5055352;28;20835;-69
2022/06/09 11:50:27;;;;;;;3.57;2.00;;;21.20;80.60;;;;;;5055400;28;20560;-69
2022/06/09 11:52:58;;;;;;;2.37;2.17;;;21.00;82.20;;;;;;5055135;28;20467;-69
2022/06/09 11:55:57;;;;;;;2.13;2.03;;;20.90;83.80;;;;;;5055321;28;20481;-69
2022/06/09 11:58:45;;;;;;;2.00;1.90;;;21.00;85.40;;;;;;5055025;28;20928;-69
2022/06/09 12:01:31;;;;;;;2.27;1.93;;;21.00;86.10;;;;;;5055176;28;20478;-69
2022/06/09 12:04:16;;;;;;;2.40;2.30;;;21.30;85.10;;;;;;5054903;28;20531;-69
2022/06/09 12:07:02;;;;;;;2.13;2.03;;;21.50;85.70;;;;;;5054919;28;20449;-69
2022/06/09 12:09:42;;;;;;;3.50;1.93;;;21.50;83.20;;;;;;5054795;28;20545;-69
2022/06/09 12:12:30;;;;;;;2.60;2.30;;;21.60;83.70;;;;;;5054863;28;20841;-70
2022/06/09 12:15:21;;;;;;;2.20;2.10;;;21.50;80.60;;;;;;5054811;28;20445;-69
2022/06/09 12:18:05;;;;;;;2.10;2.00;;;21.30;81.20;;;;;;5054813;28;20479;-69
2022/06/09 12:20:37;;;;;;;1.87;1.77;;;21.40;82.00;;;;;;5054423;28;20480;-69
2022/06/09 12:23:25;;;;;;;4.13;2.10;;;21.50;83.40;;;;;;5054389;28;20492;-69
2022/06/09 12:26:26;;;;;;;1.70;1.60;;;21.60;82.30;;;;;;5054481;28;20443;-69
2022/06/09 12:29:23;;;;;;;3.10;2.03;;;21.80;82.20;;;;;;5054430;28;20577;-69
2022/06/09 12:32:30;;;;;;;1.67;1.50;;;21.50;76.80;;;;;;5054542;28;20448;-69
2022/06/09 12:34:58;;;;;;;1.73;1.40;;;21.30;73.50;;;;;;4992990;28;20532;-69
2022/06/09 12:37:30;;;;;;;3.63;1.60;;;21.40;74.80;;;;;;4992771;28;20444;-69
2022/06/09 12:40:01;;;;;;;2.00;1.80;;;21.70;77.80;;;;;;5025485;28;20552;-69
2022/06/09 12:42:34;;;;;;;1.70;1.60;;;21.90;75.20;;;;;;5054150;28;20446;-69
2022/06/09 12:45:07;;;;;;;2.30;1.77;;;21.40;78.00;;;;;;5054293;28;20473;-69
2022/06/09 12:47:34;;;;;;;1.93;1.67;;;21.40;76.00;;;;;;5053801;28;20481;-69
2022/06/09 12:50:20;;;;;;;2.00;1.60;;;21.30;74.30;;;;;;5053945;28;20553;-69
2022/06/09 12:52:49;;;;;;;2.33;1.70;;;21.30;77.80;;;;;;5053945;28;20445;-69
2022/06/09 12:55:21;;;;;;;1.97;1.70;;;21.30;73.40;;;;;;5054050;28;20445;-69
2022/06/09 12:57:51;;;;;;;3.90;1.60;;;21.30;74.80;;;;;;5054127;28;21003;-69
2022/06/09 13:00:22;;;;;;;2.77;1.70;;;21.50;78.20;;;;;;5053823;28;20559;-69
2022/06/09 13:02:50;;;;;;;1.90;1.80;;;21.60;77.20;;;;;;5053475;28;20923;-69
2022/06/09 13:05:21;;;;;;;3.00;1.90;;;21.50;74.60;;;;;;5053941;28;20536;-69
2022/06/09 13:07:52;;;;;;;3.17;1.80;;;21.40;77.60;;;;;;5053670;28;21054;-69
2022/06/09 13:10:22;;;;;;;1.70;1.60;;;21.50;77.70;;;;;;5053534;28;20474;-69
2022/06/09 13:12:53;;;;;;;2.67;2.03;;;21.60;76.70;;;;;;5053586;28;20471;-69
2022/06/09 13:15:34;;;;;;;2.00;1.60;;;21.40;76.90;;;;;;5053725;28;20455;-69
2022/06/09 13:18:05;;;;;;;1.60;1.50;;;21.30;79.10;;;;;;5053756;28;20516;-69
2022/06/09 13:20:32;;;;;;;1.97;1.77;;;21.50;76.90;;;;;;5053699;28;20470;-69
2022/06/09 13:23:00;;;;;;;2.83;1.50;;;21.60;79.50;;;;;;5053276;28;20533;-69
2022/06/09 13:25:28;;;;;;;2.20;1.97;;;21.70;78.50;;;;;;5053587;28;20541;-69
2022/06/09 13:27:56;;;;;;;3.30;1.60;;;21.80;75.60;;;;;;5053435;28;20532;-69
2022/06/09 13:30:44;;;;;;;2.00;1.47;;;22.00;75.40;;;;;;5053558;28;20491;-69